EZY332 EDDS-LFSB
Flight info
| Callsign | EZY332 |
|---|---|
| Flight time | N/A |
| Altitude | 18000 |
| Route | ROTWE5B/25 ROTWE Y126 DENEL/N0376F170 T715 LIPKA/N0356F130 T715 RIGVI NEWBIE |
| Aircraft | A320/M-SDE3FGHIRWY/LB1 |
Departure
| Time | 2026-05-06 19:22 |
|---|---|
| Airport | Stuttgart Airport (EDDS) |
Arrival
| Time | N/A |
|---|---|
| Airport | EuroAirport Basel–Mulhouse–Freiburg (LFSB) |
| Time | Latitude | Longitude | Altitude | Speed | Heading |
|---|---|---|---|---|---|
| 2026-05-06 18:51 | 48.68943 | 9.19720 | 1291 ft | 0 kts | 343° |
| 2026-05-06 18:51 | 48.68943 | 9.19719 | 1291 ft | 0 kts | 343° |
| 2026-05-06 19:07 | 48.68942 | 9.19720 | 1285 ft | 1 kts | 343° |
| 2026-05-06 19:08 | 48.68927 | 9.19727 | 1290 ft | 3 kts | 345° |
| 2026-05-06 19:08 | 48.68907 | 9.19734 | 1285 ft | 3 kts | 351° |
| 2026-05-06 19:08 | 48.68887 | 9.19736 | 1286 ft | 3 kts | 11° |
| 2026-05-06 19:08 | 48.68872 | 9.19728 | 1287 ft | 2 kts | 59° |
| 2026-05-06 19:09 | 48.68869 | 9.19720 | 1289 ft | 0 kts | 75° |
| 2026-05-06 19:13 | 48.68875 | 9.19750 | 1289 ft | 7 kts | 73° |
| 2026-05-06 19:13 | 48.68886 | 9.19835 | 1285 ft | 6 kts | 93° |
| 2026-05-06 19:13 | 48.68868 | 9.19873 | 1287 ft | 6 kts | 150° |
| 2026-05-06 19:14 | 48.68830 | 9.19905 | 1290 ft | 8 kts | 131° |
| 2026-05-06 19:14 | 48.68834 | 9.20017 | 1290 ft | 12 kts | 74° |
| 2026-05-06 19:14 | 48.68864 | 9.20176 | 1289 ft | 19 kts | 74° |
| 2026-05-06 19:14 | 48.68905 | 9.20389 | 1290 ft | 21 kts | 74° |
| 2026-05-06 19:15 | 48.68949 | 9.20623 | 1290 ft | 27 kts | 74° |
| 2026-05-06 19:15 | 48.68999 | 9.20884 | 1287 ft | 24 kts | 74° |
| 2026-05-06 19:15 | 48.69044 | 9.21130 | 1285 ft | 25 kts | 75° |
| 2026-05-06 19:15 | 48.69094 | 9.21382 | 1288 ft | 25 kts | 74° |
| 2026-05-06 19:16 | 48.69142 | 9.21637 | 1287 ft | 25 kts | 74° |
| 2026-05-06 19:16 | 48.69191 | 9.21895 | 1285 ft | 26 kts | 74° |
| 2026-05-06 19:16 | 48.69241 | 9.22158 | 1287 ft | 26 kts | 74° |
| 2026-05-06 19:16 | 48.69292 | 9.22428 | 1286 ft | 27 kts | 74° |
| 2026-05-06 19:17 | 48.69344 | 9.22702 | 1287 ft | 25 kts | 74° |
| 2026-05-06 19:17 | 48.69394 | 9.22964 | 1288 ft | 27 kts | 74° |
| 2026-05-06 19:17 | 48.69446 | 9.23239 | 1286 ft | 28 kts | 74° |
| 2026-05-06 19:17 | 48.69493 | 9.23486 | 1286 ft | 19 kts | 74° |
| 2026-05-06 19:18 | 48.69517 | 9.23615 | 1287 ft | 8 kts | 77° |
| 2026-05-06 19:18 | 48.69505 | 9.23703 | 1288 ft | 12 kts | 122° |
| 2026-05-06 19:18 | 48.69433 | 9.23741 | 1285 ft | 4 kts | 189° |
| 2026-05-06 19:20 | 48.69419 | 9.23732 | 1285 ft | 7 kts | 205° |
| 2026-05-06 19:21 | 48.69356 | 9.23651 | 1287 ft | 16 kts | 224° |
| 2026-05-06 19:21 | 48.69280 | 9.23528 | 1288 ft | 17 kts | 231° |
| 2026-05-06 19:21 | 48.69195 | 9.23290 | 1287 ft | 35 kts | 251° |
| 2026-05-06 19:21 | 48.69074 | 9.22654 | 1290 ft | 95 kts | 254° |
| 2026-05-06 19:22 | 48.68838 | 9.21410 | 1287 ft | 149 kts | 254° |
| 2026-05-06 19:22 | 48.68541 | 9.19822 | 1780 ft | 158 kts | 253° |
| 2026-05-06 19:22 | 48.68249 | 9.18234 | 2546 ft | 157 kts | 254° |
| 2026-05-06 19:22 | 48.67944 | 9.16569 | 2954 ft | 174 kts | 254° |
| 2026-05-06 19:23 | 48.67597 | 9.14690 | 3249 ft | 197 kts | 254° |
| 2026-05-06 19:23 | 48.67199 | 9.12562 | 3623 ft | 223 kts | 255° |
| 2026-05-06 19:23 | 48.66752 | 9.10206 | 4165 ft | 242 kts | 254° |
| 2026-05-06 19:23 | 48.66273 | 9.07714 | 4906 ft | 249 kts | 254° |
| 2026-05-06 19:24 | 48.65784 | 9.05177 | 5776 ft | 253 kts | 254° |
| 2026-05-06 19:24 | 48.65273 | 9.02532 | 6655 ft | 258 kts | 253° |
| 2026-05-06 19:24 | 48.64776 | 8.99967 | 7451 ft | 263 kts | 253° |
| 2026-05-06 19:24 | 48.64254 | 8.97290 | 8289 ft | 268 kts | 253° |
| 2026-05-06 19:25 | 48.63723 | 8.94566 | 9134 ft | 272 kts | 253° |
| 2026-05-06 19:25 | 48.63191 | 8.91832 | 9940 ft | 277 kts | 253° |
| 2026-05-06 19:25 | 48.62631 | 8.88953 | 10345 ft | 297 kts | 253° |
| 2026-05-06 19:25 | 48.61867 | 8.85870 | 10594 ft | 321 kts | 243° |
| 2026-05-06 19:26 | 48.60678 | 8.82971 | 10949 ft | 336 kts | 232° |
| 2026-05-06 19:26 | 48.59112 | 8.80302 | 11611 ft | 342 kts | 227° |
| 2026-05-06 19:26 | 48.57495 | 8.77648 | 12368 ft | 345 kts | 227° |
| 2026-05-06 19:26 | 48.55869 | 8.74971 | 13131 ft | 348 kts | 227° |
| 2026-05-06 19:27 | 48.54226 | 8.72262 | 13696 ft | 351 kts | 227° |
| 2026-05-06 19:27 | 48.52619 | 8.69483 | 13846 ft | 351 kts | 233° |
| 2026-05-06 19:27 | 48.51342 | 8.66347 | 13878 ft | 352 kts | 243° |
| 2026-05-06 19:27 | 48.50484 | 8.62891 | 13875 ft | 353 kts | 253° |
| 2026-05-06 19:28 | 48.49845 | 8.59316 | 13885 ft | 354 kts | 253° |
| 2026-05-06 19:28 | 48.49197 | 8.55730 | 13884 ft | 354 kts | 253° |
| 2026-05-06 19:28 | 48.48547 | 8.52162 | 13884 ft | 354 kts | 253° |
| 2026-05-06 19:28 | 48.47893 | 8.48595 | 13885 ft | 352 kts | 253° |
| 2026-05-06 19:29 | 48.47234 | 8.45017 | 14087 ft | 358 kts | 253° |
| 2026-05-06 19:29 | 48.46563 | 8.41398 | 14785 ft | 360 kts | 253° |
| 2026-05-06 19:29 | 48.45886 | 8.37752 | 15436 ft | 363 kts | 253° |
| 2026-05-06 19:29 | 48.45199 | 8.34075 | 16088 ft | 365 kts | 253° |
| 2026-05-06 19:30 | 48.44506 | 8.30378 | 16736 ft | 369 kts | 253° |
| 2026-05-06 19:30 | 48.43801 | 8.26637 | 17311 ft | 373 kts | 252° |
| 2026-05-06 19:30 | 48.43084 | 8.22850 | 17780 ft | 379 kts | 252° |
| 2026-05-06 19:30 | 48.42363 | 8.19038 | 17893 ft | 384 kts | 253° |
| 2026-05-06 19:31 | 48.41614 | 8.15095 | 17908 ft | 397 kts | 252° |
| 2026-05-06 19:31 | 48.40849 | 8.11068 | 17907 ft | 403 kts | 253° |
| 2026-05-06 19:31 | 48.39304 | 8.02922 | 17916 ft | 405 kts | 252° |
| 2026-05-06 19:32 | 48.38542 | 7.98919 | 17917 ft | 403 kts | 252° |
| 2026-05-06 19:32 | 48.37754 | 7.94801 | 17917 ft | 404 kts | 253° |
| 2026-05-06 19:32 | 48.36862 | 7.90858 | 17919 ft | 404 kts | 245° |
| 2026-05-06 19:32 | 48.35524 | 7.87150 | 17920 ft | 404 kts | 236° |
| 2026-05-06 19:33 | 48.33773 | 7.83856 | 17919 ft | 403 kts | 227° |
| 2026-05-06 19:33 | 48.31865 | 7.80759 | 17921 ft | 404 kts | 227° |
| 2026-05-06 19:33 | 48.29965 | 7.77656 | 17923 ft | 404 kts | 227° |
| 2026-05-06 19:33 | 48.28072 | 7.74555 | 17924 ft | 404 kts | 227° |
| 2026-05-06 19:34 | 48.26169 | 7.71435 | 17921 ft | 404 kts | 227° |
| 2026-05-06 19:34 | 48.24273 | 7.68329 | 17909 ft | 405 kts | 227° |
| 2026-05-06 19:34 | 48.22368 | 7.65215 | 17907 ft | 405 kts | 227° |
| 2026-05-06 19:34 | 48.20457 | 7.62106 | 17902 ft | 405 kts | 227° |
| 2026-05-06 19:35 | 48.19166 | 7.60010 | 17895 ft | 405 kts | 227° |
| 2026-05-06 19:35 | 48.17212 | 7.56960 | 17894 ft | 405 kts | 222° |
| 2026-05-06 19:35 | 48.14989 | 7.54469 | 17900 ft | 405 kts | 211° |
| 2026-05-06 19:35 | 48.11533 | 7.52265 | 17903 ft | 406 kts | 195° |
| 2026-05-06 19:36 | 48.09694 | 7.51744 | 17899 ft | 407 kts | 187° |
| 2026-05-06 19:36 | 48.06866 | 7.51727 | 17900 ft | 408 kts | 174° |
| 2026-05-06 19:36 | 48.04052 | 7.52323 | 17913 ft | 408 kts | 173° |
| 2026-05-06 19:36 | 48.01244 | 7.52928 | 17914 ft | 408 kts | 173° |
| 2026-05-06 19:37 | 47.98433 | 7.53523 | 17909 ft | 408 kts | 173° |
| 2026-05-06 19:37 | 47.95620 | 7.54109 | 17918 ft | 408 kts | 173° |
| 2026-05-06 19:37 | 47.92855 | 7.54682 | 17865 ft | 388 kts | 173° |
| 2026-05-06 19:37 | 47.90285 | 7.55220 | 17721 ft | 359 kts | 173° |
| 2026-05-06 19:38 | 47.87892 | 7.55722 | 17370 ft | 340 kts | 173° |
| 2026-05-06 19:38 | 47.85572 | 7.56209 | 16707 ft | 333 kts | 174° |
| 2026-05-06 19:38 | 47.83305 | 7.56687 | 16057 ft | 326 kts | 174° |
| 2026-05-06 19:38 | 47.81070 | 7.57156 | 15520 ft | 323 kts | 174° |
| 2026-05-06 19:39 | 47.78899 | 7.57609 | 15398 ft | 305 kts | 174° |
| 2026-05-06 19:39 | 47.76863 | 7.58035 | 15274 ft | 286 kts | 174° |
| 2026-05-06 19:39 | 47.74947 | 7.58435 | 15134 ft | 270 kts | 174° |
| 2026-05-06 19:39 | 47.73139 | 7.58812 | 14947 ft | 257 kts | 175° |
| 2026-05-06 19:40 | 47.71397 | 7.59175 | 14652 ft | 250 kts | 175° |
| 2026-05-06 19:40 | 47.69686 | 7.59527 | 14256 ft | 247 kts | 175° |
| 2026-05-06 19:40 | 47.67992 | 7.59874 | 13844 ft | 245 kts | 175° |
| 2026-05-06 19:40 | 47.66303 | 7.60223 | 13380 ft | 244 kts | 175° |
| 2026-05-06 19:41 | 47.64626 | 7.60573 | 12930 ft | 242 kts | 175° |
| 2026-05-06 19:41 | 47.62961 | 7.60920 | 12480 ft | 241 kts | 176° |
| 2026-05-06 19:41 | 47.61306 | 7.61264 | 12026 ft | 240 kts | 176° |
| 2026-05-06 19:41 | 47.59632 | 7.61609 | 11384 ft | 246 kts | 176° |
| 2026-05-06 19:42 | 47.57918 | 7.61959 | 10757 ft | 251 kts | 176° |
| 2026-05-06 19:42 | 47.56171 | 7.62316 | 10139 ft | 255 kts | 176° |
| 2026-05-06 19:42 | 47.54427 | 7.62675 | 9504 ft | 258 kts | 176° |
| 2026-05-06 19:42 | 47.52621 | 7.63049 | 8826 ft | 259 kts | 176° |
| 2026-05-06 19:43 | 47.50833 | 7.63422 | 8173 ft | 259 kts | 176° |
| 2026-05-06 19:43 | 47.49087 | 7.63788 | 7927 ft | 245 kts | 177° |
| 2026-05-06 19:43 | 47.47471 | 7.64131 | 7642 ft | 234 kts | 177° |
| 2026-05-06 19:43 | 47.45858 | 7.64467 | 7108 ft | 234 kts | 177° |
| 2026-05-06 19:44 | 47.44247 | 7.64797 | 6581 ft | 233 kts | 177° |
| 2026-05-06 19:44 | 47.42644 | 7.65069 | 6053 ft | 229 kts | 186° |
| 2026-05-06 19:44 | 47.41254 | 7.64308 | 5726 ft | 206 kts | 227° |
| 2026-05-06 19:44 | 47.40598 | 7.62510 | 5732 ft | 206 kts | 262° |
| 2026-05-06 19:45 | 47.40911 | 7.60467 | 5738 ft | 214 kts | 302° |
| 2026-05-06 19:45 | 47.42151 | 7.59215 | 5732 ft | 229 kts | 343° |
| 2026-05-06 19:45 | 47.43771 | 7.59241 | 5732 ft | 238 kts | 1° |
| 2026-05-06 19:45 | 47.45426 | 7.59463 | 5732 ft | 240 kts | 0° |
| 2026-05-06 19:46 | 47.47049 | 7.59676 | 5717 ft | 225 kts | 0° |
| 2026-05-06 19:46 | 47.48584 | 7.59717 | 5316 ft | 217 kts | 345° |
| 2026-05-06 19:46 | 47.50004 | 7.59103 | 4799 ft | 211 kts | 332° |
| 2026-05-06 19:46 | 47.51352 | 7.58223 | 4173 ft | 214 kts | 330° |
| 2026-05-06 19:47 | 47.52695 | 7.57291 | 4006 ft | 217 kts | 330° |
| 2026-05-06 19:47 | 47.54072 | 7.56335 | 4006 ft | 220 kts | 330° |
| 2026-05-06 19:47 | 47.55463 | 7.55370 | 4014 ft | 221 kts | 330° |
| 2026-05-06 19:47 | 47.56855 | 7.54404 | 4101 ft | 222 kts | 330° |
| 2026-05-06 19:48 | 47.58259 | 7.53431 | 4964 ft | 223 kts | 329° |
| 2026-05-06 19:48 | 47.59682 | 7.52449 | 5713 ft | 230 kts | 329° |
| 2026-05-06 19:48 | 47.61141 | 7.51440 | 5946 ft | 232 kts | 329° |
| 2026-05-06 19:48 | 47.62599 | 7.50430 | 6002 ft | 231 kts | 329° |
| 2026-05-06 19:49 | 47.63999 | 7.49303 | 5989 ft | 225 kts | 313° |
| 2026-05-06 19:49 | 47.64832 | 7.47448 | 5985 ft | 214 kts | 280° |
| 2026-05-06 19:49 | 47.64894 | 7.45291 | 5984 ft | 209 kts | 254° |
| 2026-05-06 19:49 | 47.64219 | 7.43413 | 5990 ft | 209 kts | 225° |
| 2026-05-06 19:50 | 47.62932 | 7.42415 | 5991 ft | 216 kts | 192° |
| 2026-05-06 19:50 | 47.61424 | 7.42682 | 5999 ft | 226 kts | 165° |
| 2026-05-06 19:50 | 47.59994 | 7.43723 | 5985 ft | 231 kts | 155° |
| 2026-05-06 19:50 | 47.58610 | 7.44946 | 5989 ft | 232 kts | 155° |
| 2026-05-06 19:51 | 47.57203 | 7.46085 | 6001 ft | 230 kts | 158° |
| 2026-05-06 19:51 | 47.55778 | 7.47167 | 5977 ft | 230 kts | 159° |
| 2026-05-06 19:51 | 47.54351 | 7.48244 | 5998 ft | 231 kts | 158° |
| 2026-05-06 19:51 | 47.52960 | 7.49440 | 5977 ft | 236 kts | 145° |
| 2026-05-06 19:52 | 47.51986 | 7.51377 | 5898 ft | 245 kts | 114° |
| 2026-05-06 19:52 | 47.51777 | 7.53914 | 5817 ft | 251 kts | 81° |
| 2026-05-06 19:52 | 47.52472 | 7.56248 | 5758 ft | 249 kts | 47° |
| 2026-05-06 19:52 | 47.53821 | 7.57706 | 5700 ft | 243 kts | 15° |
| 2026-05-06 19:53 | 47.55440 | 7.58021 | 5637 ft | 232 kts | 349° |
| 2026-05-06 19:53 | 47.57053 | 7.57803 | 5569 ft | 233 kts | 348° |
| 2026-05-06 19:53 | 47.58668 | 7.57588 | 5505 ft | 233 kts | 349° |
| 2026-05-06 19:53 | 47.60280 | 7.57375 | 5441 ft | 233 kts | 348° |
| 2026-05-06 19:54 | 47.61905 | 7.57357 | 5384 ft | 238 kts | 8° |
| 2026-05-06 19:54 | 47.63394 | 7.58474 | 5336 ft | 247 kts | 37° |
| 2026-05-06 19:54 | 47.64591 | 7.60324 | 5279 ft | 251 kts | 57° |